KSUU

Travis AFB Airport

Fairfield, California, USA
TAF KSUU 181901Z 1819/2001 18006KT 9999 BKN070 QNH3030INS BECMG 1910/1911 VRB06KT 6000 BR BKN100 QNH3028INS BECMG 1915/1916 30009KT 9999 NSW SCT100 QNH3024INS TX16/1821Z TN05/1912Z
Issued Valid From Valid To
Dec-18 @ 19:01 UTC
(5 hours ago)
Dec-18 @ 19:00 UTC
(5 hours ago)
Dec-20 @ 01:00 UTC
(-1 days ago)
Dec-18 @ 19:00 to Dec-19 @ 10:00
TAF KSUU 181901Z 1819/2001 18006KT 9999 BKN070 QNH3030INS
Wind Visibility Clouds Readings
180° at 6 knots Greater than 6 miles
  • Broken at 7,000' AGL
Altimeter 30.3" Hg
Pressure 1026 hPa
Becoming Dec-19 @ 10:00 to Dec-19 @ 15:00
BECMG 1910/1911 VRB06KT 6000 BR BKN100 QNH3028INS
Wind Visibility Clouds Conditions Readings
Variable at 6 knots 3.7 miles
  • Broken at 10,000' AGL
  • Mist
Altimeter 30.27" Hg
Pressure 1025 hPa
Becoming Dec-19 @ 15:00 to Dec-20 @ 01:00
BECMG 1915/1916 30009KT 9999 NSW SCT100 QNH3024INS TX16/1821Z TN05/1912Z
Wind Visibility Clouds Conditions Readings
300° at 9 knots Greater than 6 miles
  • Scattered at 10,000' AGL
Altimeter 30.24" Hg
Pressure 1024 hPa
TAF KSUU 181901Z 1819/2001 18006KT 9999 BKN070 QNH3030INS BECMG 1910/1911 VRB06KT 6000 BR BKN100 QNH3028INS BECMG 1915/1916 30009KT 9999 NSW SCT100 QNH3024INS TX16/1821Z TN05/1912Z
Issued Dec-18 @ 19:01 UTC
(5 hours ago)
Valid From Dec-18 @ 19:00 UTC
(5 hours ago)
Valid To Dec-20 @ 01:00 UTC
(-1 days ago)
Dec-18 @ 19:00 - Dec-19 @ 10:00
Wind Visibility
180° at 6 knots Greater than 6 miles
Clouds
  • Broken at 7,000' AGL
Becoming Dec-19 @ 10:00 - Dec-19 @ 15:00
Wind Visibility
Variable at 6 knots 3.7 miles
Clouds
  • Broken at 10,000' AGL
Conditions
  • Mist
Becoming Dec-19 @ 15:00 - Dec-20 @ 01:00
Wind Visibility
300° at 9 knots Greater than 6 miles
Clouds
  • Scattered at 10,000' AGL
Conditions